New Providence, NJ (07974)

3:12 PM EST on February 10, 2016 (GMT -0500)
New Providence | | Change Station
CLOSE
Current Station
Personal Weather Station
Location: New Providence, NJ
Elevation: 259 ft
Nearby Weather Stations

Elev 259 ft 40.69 °N, 74.42 °W | Updated 5 seconds ago

Overcast
Overcast
38.8 °F
Feels Like 35 °F
N
4.5
Wind Variable Wind from SSE
Gusts 4.9 mph

Today
High -- | Low -- °F
--% Chance of Precip.
Yesterday
High -- | Low -- °F
Precip. -- in
Pressure 29.63 in
Visibility 15.0 miles
Clouds Mostly Cloudy 5000 ft
Windchill 35 °F
Dew Point 18 °F
Humidity 42%
Rainfall 0.00 in
Snow Depth Not available.
6:58 AM 5:25 PM
Waxing Crescent, 7% visible
METAR KMMU 101945Z 30013G17KT 15SM BKN050 03/M06 A2963
Pressure 29.63 in
Visibility 15.0 miles
Clouds Mostly Cloudy 5000 ft
Windchill 35 °F
Dew Point 18 °F
Humidity 42%
Rainfall 0.00 in
Snow Depth Not available.
6:58 AM 5:25 PM
Waxing Crescent, 7% visible
METAR KMMU 101945Z 30013G17KT 15SM BKN050 03/M06 A2963

10-Day Weather Forecast

Almanac

Astronomy

Feb. 10, 2016 Rise Set
Actual Time
Civil Twilight
Nautical Twilight
Astronomical Twilight
Moon
Length of Visible Light
Length of Day
Tomorrow will be .
, % of the Moon is Illuminated

Today's Extremes

State Highs State Lows

Community

WunderPhotos

Upload Photos

1,891,933 photos uploaded!

WunderBlog® & News

Nearby

Air Quality

  Air Quality AQ Index Pollutant
Not available.

Snow Depth

Station Depth Elevation

Earthquake Activity

City Distance Mag. Time & Date
Minimum magnitude displayed is 2.5.

Coastal Water Temperatures

Place Temperature

Stations

Nearby Weather Stations

Station Location Temp. Windchill Dew Point Humidity Wind Precip. Elev Updated Type
                   

Watches & Warnings

There are currently no watches in effect.